Cachoeiras de Macacu, Brazil
Current Conditions -  °F | °C
As of 8:00 PM on Thursday 20 Nov 2014 (Local Time) from SBES Reporting Station
Clear Clear  
Wind Chill: 72°   Ceiling: Unl
Heat Index: 72°   Visibility: 6mi
Dew Point: 63°   Wind: 15mph
Humidity: 73%   Direction: 70°ENE
Pressure: 29.97"   Gusts: NA
Location:  22.46°S, 42.65°W
Report Text: SBES 202200Z 07013KT CAVOK 22/17 Q1015
Loading
Personal Weather Stations






























Interactive Weather Map New forecast layout! Learn more

10-Day Weather Forecast

Advertisements
Track Severe Weather on mobile